Terminal Aerodrome Forecast
Issued by NWS

Home | Current Version | Previous Version | Text Only | Print | Product List | Glossary On
Versions: 1 2 3 4 5 6 7 8 9 10 11 12 13 14 15
000
FTUS41 KPHI 280523
TAFPNE
TAF
KPNE 280523Z 2806/2906 18004KT P6SM SCT035
      TEMPO 2809/2812 BKN020
     FM281600 23006KT P6SM SCT035
     FM282300 19006KT P6SM SCT040
     FM290200 21002KT P6SM FEW035 SCT250=

USA.gov is the U.S. government's official web portal to all federal, state and local government web resources and services.